Time;durP1;ratioP1;P1;durP2;ratioP2;P2;SDS_P1;SDS_P2;PMS_P1;PMS_P2;Temp;Humidity;BMP_temperature;BMP_pressure;BME280_temperature;BME280_humidity;BME280_pressure;Samples;Min_cycle;Max_cycle;Signal;HPM_P1;HPM_P2
2024/01/02 00:00:16;;;;;;;3.15;0.90;;;;;;;3.61;100.00;92402.63;2059815;27;21455;-79
2024/01/02 00:01:17;;;;;;;1.75;0.68;;;;;;;3.64;100.00;92396.53;2052298;27;20038;-77
2024/01/02 00:02:17;;;;;;;2.05;0.65;;;;;;;3.56;100.00;92402.28;2047718;28;20393;-81
2024/01/02 00:03:18;;;;;;;2.83;0.80;;;;;;;3.49;100.00;92395.16;2065902;27;20424;-79
2024/01/02 00:04:19;;;;;;;4.03;0.70;;;;;;;3.45;100.00;92402.34;2077764;27;20030;-77
2024/01/02 00:05:20;;;;;;;2.38;0.63;;;;;;;3.39;100.00;92399.38;2079896;27;20023;-78
2024/01/02 00:06:21;;;;;;;2.92;0.88;;;;;;;3.45;100.00;92391.78;2064366;27;20027;-78
2024/01/02 00:07:22;;;;;;;1.58;0.82;;;;;;;3.46;100.00;92388.75;2079291;27;20047;-77
2024/01/02 00:08:23;;;;;;;1.83;0.57;;;;;;;3.44;100.00;92392.94;2091676;27;20114;-77
2024/01/02 00:09:24;;;;;;;1.95;0.60;;;;;;;3.37;100.00;92385.03;2099464;27;20043;-80
2024/01/02 00:10:26;;;;;;;3.25;0.60;;;;;;;3.40;100.00;92377.09;2105744;27;20188;-81
2024/01/02 00:11:27;;;;;;;2.90;0.60;;;;;;;3.46;100.00;92386.09;2101321;28;20109;-78
2024/01/02 00:12:27;;;;;;;1.45;0.60;;;;;;;3.45;100.00;92381.97;2101206;28;20497;-82
2024/01/02 00:13:28;;;;;;;1.35;0.50;;;;;;;3.40;100.00;92381.63;2098486;28;20023;-77
2024/01/02 00:14:29;;;;;;;0.60;0.60;;;;;;;3.56;100.00;92381.91;2115609;27;20027;-84
2024/01/02 00:15:30;;;;;;;1.75;1.10;;;;;;;3.57;100.00;92378.13;2123732;27;20038;-79
2024/01/02 00:16:31;;;;;;;0.77;0.50;;;;;;;3.57;100.00;92362.28;2123801;27;20023;-79
2024/01/02 00:17:32;;;;;;;2.35;0.60;;;;;;;3.57;100.00;92378.13;2123331;27;20031;-79
2024/01/02 00:18:34;;;;;;;2.00;0.80;;;;;;;3.56;100.00;92386.41;2106266;28;20707;-79
2024/01/02 00:19:35;;;;;;;3.60;0.70;;;;;;;3.84;100.00;92367.69;2107165;27;20032;-80
2024/01/02 00:20:36;;;;;;;1.63;0.50;;;;;;;3.77;100.00;92365.84;2115095;28;20067;-82
2024/01/02 00:21:37;;;;;;;1.27;0.40;;;;;;;3.72;100.00;92370.81;2125510;27;20038;-81
2024/01/02 00:22:38;;;;;;;0.50;0.30;;;;;;;3.89;100.00;92359.34;2123483;27;20091;-78
2024/01/02 00:23:39;;;;;;;0.75;0.52;;;;;;;3.88;100.00;92352.56;2109827;28;20093;-81
2024/01/02 00:24:41;;;;;;;0.93;0.50;;;;;;;3.90;100.00;92354.81;2107808;27;20019;-82
2024/01/02 00:25:42;;;;;;;1.70;0.55;;;;;;;3.87;100.00;92352.97;2117924;27;20294;-83
2024/01/02 00:26:42;;;;;;;3.30;0.60;;;;;;;3.84;100.00;92343.91;2114870;28;20109;-81
2024/01/02 00:27:43;;;;;;;1.02;0.40;;;;;;;3.78;100.00;92356.81;2120985;27;20051;-83
2024/01/02 00:28:45;;;;;;;2.97;0.65;;;;;;;3.79;100.00;92331.13;2106756;28;20024;-77
2024/01/02 00:29:46;;;;;;;2.20;0.60;;;;;;;3.74;100.00;92340.22;2117822;27;20472;-80
2024/01/02 00:30:46;;;;;;;1.58;0.50;;;;;;;3.84;100.00;92340.53;2116687;27;20031;-79
2024/01/02 00:31:47;;;;;;;1.15;0.50;;;;;;;3.77;100.00;92336.78;2118812;27;20024;-83
2024/01/02 00:32:48;;;;;;;2.05;0.60;;;;;;;3.79;100.00;92337.16;2106627;28;20054;-79
2024/01/02 00:33:49;;;;;;;1.00;0.50;;;;;;;3.78;100.00;92337.56;2090155;28;20115;-83
2024/01/02 00:34:51;;;;;;;2.13;0.60;;;;;;;4.03;100.00;92339.94;2094164;28;20047;-81
2024/01/02 00:35:52;;;;;;;0.50;0.50;;;;;;;4.11;100.00;92336.09;2115297;27;20107;-79
2024/01/02 00:36:53;;;;;;;0.90;0.57;;;;;;;4.05;100.00;92340.31;2112976;28;20035;-80
2024/01/02 00:37:54;;;;;;;0.90;0.60;;;;;;;4.00;100.00;92328.28;2106764;28;20070;-82
2024/01/02 00:38:55;;;;;;;0.73;0.40;;;;;;;4.08;100.00;92320.25;2114539;27;20046;-81
2024/01/02 00:39:56;;;;;;;0.60;0.40;;;;;;;4.36;100.00;92329.81;2106812;28;20714;-83
2024/01/02 00:40:57;;;;;;;1.77;0.32;;;;;;;4.44;100.00;92318.00;2115167;28;20474;-82
2024/01/02 00:42:12;;;;;;;1.50;0.30;;;;;;;4.36;100.00;92324.50;2099062;28;20031;-79
2024/01/02 00:43:13;;;;;;;0.40;0.38;;;;;;;4.36;100.00;92321.88;2117013;27;20030;-82
2024/01/02 00:44:15;;;;;;;3.17;0.60;;;;;;;4.33;100.00;92328.69;2126913;27;20427;-81
2024/01/02 00:45:16;;;;;;;0.32;0.30;;;;;;;4.36;100.00;92322.63;2109740;27;20526;-79
2024/01/02 00:46:17;;;;;;;0.50;0.30;;;;;;;4.38;100.00;92322.97;2027491;28;20555;-81
2024/01/02 00:47:21;;;;;;;0.45;0.45;;;;;;;4.43;100.00;92314.56;2024625;28;20135;-79
2024/01/02 00:48:22;;;;;;;3.72;1.05;;;;;;;4.52;100.00;92314.09;2019265;28;20159;-78
2024/01/02 00:49:22;;;;;;;0.43;0.30;;;;;;;4.47;100.00;92310.00;2031109;28;20028;-81
2024/01/02 00:50:25;;;;;;;0.88;0.30;;;;;;;4.49;100.00;92313.00;2034728;28;20674;-81
2024/01/02 00:51:26;;;;;;;1.02;0.30;;;;;;;4.51;100.00;92300.13;2027183;28;20269;-82
2024/01/02 00:52:36;;;;;;;2.50;0.85;;;;;;;4.42;100.00;92299.09;2057216;27;20028;-78
2024/01/02 00:53:37;;;;;;;1.25;0.30;;;;;;;4.41;100.00;92302.91;2079028;27;22860;-81
2024/01/02 00:54:38;;;;;;;0.85;0.20;;;;;;;4.34;100.00;92297.69;2081209;27;20026;-80
2024/01/02 00:55:39;;;;;;;1.08;0.40;;;;;;;4.29;100.00;92298.88;2084207;27;20114;-81
2024/01/02 00:56:40;;;;;;;0.80;0.40;;;;;;;4.34;100.00;92297.69;2081714;27;20048;-80
2024/01/02 00:57:41;;;;;;;1.92;0.38;;;;;;;4.45;100.00;92293.03;2091996;27;20153;-80
2024/01/02 00:58:42;;;;;;;0.22;0.22;;;;;;;4.49;100.00;92281.25;2088698;27;20063;-82
2024/01/02 00:59:43;;;;;;;0.70;0.35;;;;;;;4.40;100.00;92294.22;2086902;27;20023;-81
2024/01/02 01:00:44;;;;;;;1.00;0.30;;;;;;;4.37;100.00;92287.06;2104201;27;20023;-81
2024/01/02 01:01:44;;;;;;;0.30;0.30;;;;;;;4.42;100.00;92281.34;2116268;27;20167;-80
2024/01/02 01:02:47;;;;;;;0.85;0.30;;;;;;;4.37;100.00;92283.69;2119675;27;20030;-78
2024/01/02 01:03:48;;;;;;;0.40;0.30;;;;;;;4.62;100.00;92272.78;2112920;27;20050;-79
2024/01/02 01:04:49;;;;;;;0.63;0.30;;;;;;;4.73;100.00;92276.03;2109461;28;20771;-82
2024/01/02 01:05:50;;;;;;;0.30;0.30;;;;;;;4.77;100.00;92268.78;2114640;27;20036;-80
2024/01/02 01:06:51;;;;;;;0.60;0.30;;;;;;;4.67;100.00;92272.34;2122630;27;20019;-81
2024/01/02 01:07:52;;;;;;;1.08;0.40;;;;;;;4.64;100.00;92273.88;2123231;27;20030;-81
2024/01/02 01:08:53;;;;;;;0.52;0.22;;;;;;;4.92;100.00;92275.41;2123407;27;20035;-78
2024/01/02 01:09:54;;;;;;;1.38;0.60;;;;;;;4.83;100.00;92275.16;2123314;27;20020;-82
2024/01/02 01:10:55;;;;;;;0.50;0.30;;;;;;;4.81;100.00;92269.50;2132067;27;20042;-81
2024/01/02 01:11:56;;;;;;;0.68;0.30;;;;;;;4.80;100.00;92271.41;2123190;27;20024;-77
2024/01/02 01:12:57;;;;;;;0.38;0.30;;;;;;;4.92;100.00;92267.47;2131947;27;20018;-82
2024/01/02 01:13:58;;;;;;;0.38;0.30;;;;;;;4.85;100.00;92267.53;2140967;27;20411;-81
2024/01/02 01:14:59;;;;;;;0.30;0.30;;;;;;;5.05;100.00;92270.31;2131936;27;20053;-82
2024/01/02 01:16:00;;;;;;;0.85;0.40;;;;;;;5.00;100.00;92266.22;2116222;27;20058;-81
2024/01/02 01:17:02;;;;;;;0.32;0.22;;;;;;;4.86;100.00;92269.03;2114446;28;20102;-83
2024/01/02 01:18:03;;;;;;;0.40;0.40;;;;;;;4.89;100.00;92265.59;2106327;28;20024;-79
2024/01/02 01:19:04;;;;;;;0.28;0.28;;;;;;;5.09;100.00;92267.56;2111149;28;20031;-81
2024/01/02 01:20:05;;;;;;;0.20;0.20;;;;;;;5.13;100.00;92268.28;2114817;28;20380;-82
2024/01/02 01:21:07;;;;;;;1.38;0.40;;;;;;;5.20;100.00;92276.13;2119764;27;20053;-84
2024/01/02 01:22:08;;;;;;;2.63;0.47;;;;;;;5.12;100.00;92272.81;2107150;28;20028;-80
2024/01/02 01:23:09;;;;;;;0.30;0.28;;;;;;;5.07;100.00;92259.28;2106414;28;20020;-80
2024/01/02 01:24:10;;;;;;;1.40;0.20;;;;;;;5.03;100.00;92268.03;2106393;28;20020;-81
2024/01/02 01:25:11;;;;;;;0.20;0.20;;;;;;;5.00;100.00;92266.22;2106902;28;20035;-82
2024/01/02 01:26:12;;;;;;;0.75;0.30;;;;;;;4.92;100.00;92269.34;2119080;27;20023;-82
2024/01/02 01:27:19;;;;;;;0.20;0.20;;;;;;;5.08;100.00;92282.72;2110912;27;20031;-79
2024/01/02 01:28:19;;;;;;;0.85;0.30;;;;;;;5.03;100.00;92286.56;2114157;27;20070;-81
2024/01/02 01:29:21;;;;;;;0.40;0.30;;;;;;;5.00;100.00;92276.03;2123765;27;20038;-82
2024/01/02 01:30:22;;;;;;;0.90;0.30;;;;;;;5.35;100.00;92266.78;2123688;27;20419;-80
2024/01/02 01:31:23;;;;;;;0.35;0.30;;;;;;;5.42;100.00;92266.69;2102745;28;20023;-80
2024/01/02 01:32:24;;;;;;;0.30;0.30;;;;;;;5.71;100.00;92268.88;2106128;27;20092;-80
2024/01/02 01:33:25;;;;;;;1.40;0.30;;;;;;;5.41;100.00;92277.69;2114862;27;20023;-79
2024/01/02 01:34:26;;;;;;;1.02;0.30;;;;;;;5.22;100.00;92274.59;2119335;27;20395;-79
2024/01/02 01:35:27;;;;;;;0.38;0.30;;;;;;;5.11;100.00;92281.19;2106048;28;20489;-80
2024/01/02 01:36:28;;;;;;;0.80;0.40;;;;;;;4.97;100.00;92274.19;2089722;28;20040;-81
2024/01/02 01:37:29;;;;;;;1.77;0.38;;;;;;;4.96;100.00;92292.00;2089343;28;20296;-79
2024/01/02 01:38:30;;;;;;;0.20;0.20;;;;;;;4.91;100.00;92283.72;2098039;28;20024;-80
2024/01/02 01:39:31;;;;;;;0.30;0.30;;;;;;;4.98;100.00;92281.72;2112059;28;20020;-78
2024/01/02 01:40:32;;;;;;;0.20;0.20;;;;;;;5.01;100.00;92274.91;2123111;27;20038;-80
2024/01/02 01:41:33;;;;;;;0.98;0.40;;;;;;;4.95;100.00;92282.53;2131507;27;20025;-79
2024/01/02 01:42:34;;;;;;;0.82;0.57;;;;;;;4.99;100.00;92277.94;2113687;28;20035;-81
2024/01/02 01:43:35;;;;;;;0.68;0.35;;;;;;;4.87;100.00;92273.19;2106165;28;20028;-78
2024/01/02 01:44:36;;;;;;;0.47;0.32;;;;;;;4.84;100.00;92268.69;2123130;27;20019;-80
2024/01/02 01:45:37;;;;;;;0.20;0.20;;;;;;;4.98;100.00;92273.78;2119435;27;20490;-79
2024/01/02 01:46:40;;;;;;;2.00;0.30;;;;;;;4.88;100.00;92271.31;2114545;28;20714;-83
2024/01/02 01:47:41;;;;;;;0.30;0.20;;;;;;;4.86;100.00;92271.69;2130379;27;20114;-80
2024/01/02 01:48:44;;;;;;;0.75;0.40;;;;;;;4.88;100.00;92266.00;2122858;27;20031;-78
2024/01/02 01:49:45;;;;;;;0.32;0.32;;;;;;;4.88;100.00;92258.81;2114832;27;20349;-81
2024/01/02 01:50:48;;;;;;;0.77;0.30;;;;;;;4.91;100.00;92260.63;2114307;27;20083;-81
2024/01/02 01:51:51;;;;;;;0.30;0.30;;;;;;;4.89;100.00;92248.97;2121811;27;20023;-80
2024/01/02 01:52:52;;;;;;;0.55;0.40;;;;;;;4.85;100.00;92251.66;2115521;28;20510;-81
2024/01/02 01:53:53;;;;;;;1.02;0.30;;;;;;;4.87;100.00;92245.97;2115033;28;20027;-78
2024/01/02 01:54:54;;;;;;;1.45;0.30;;;;;;;4.81;100.00;92240.38;2117520;27;20047;-84
2024/01/02 01:55:56;;;;;;;0.73;0.20;;;;;;;4.67;100.00;92240.56;2120169;27;20026;-81
2024/01/02 01:56:57;;;;;;;0.30;0.30;;;;;;;4.69;100.00;92246.97;2117770;27;20051;-80
2024/01/02 01:57:58;;;;;;;0.35;0.25;;;;;;;4.70;100.00;92242.44;2119791;27;20019;-81
2024/01/02 01:59:00;;;;;;;1.77;0.40;;;;;;;4.66;100.00;92239.09;2109048;28;20020;-81
2024/01/02 02:00:01;;;;;;;0.30;0.30;;;;;;;4.55;100.00;92241.88;2122483;27;20106;-82
2024/01/02 02:01:03;;;;;;;0.43;0.30;;;;;;;4.56;100.00;92238.06;2123614;27;20483;-81
2024/01/02 02:04:02;;;;;;;0.20;0.20;;;;;;;4.72;100.00;92238.22;2114236;28;20030;-79
2024/01/02 02:05:03;;;;;;;0.40;0.30;;;;;;;4.73;100.00;92236.31;2121047;27;20707;-81
2024/01/02 02:06:04;;;;;;;0.20;0.20;;;;;;;4.62;100.00;92230.44;2123389;27;20019;-80
2024/01/02 02:07:06;;;;;;;0.20;0.20;;;;;;;4.66;100.00;92228.50;2121834;27;20474;-79
2024/01/02 02:08:17;;;;;;;0.80;0.20;;;;;;;4.61;100.00;92227.06;2114556;28;20084;-80
2024/01/02 02:09:18;;;;;;;0.30;0.20;;;;;;;4.68;100.00;92234.88;2107265;28;20102;-80
2024/01/02 02:10:20;;;;;;;0.25;0.25;;;;;;;4.69;100.00;92225.03;2114650;28;20146;-80
2024/01/02 02:11:21;;;;;;;0.55;0.20;;;;;;;4.58;100.00;92227.84;2122941;27;20019;-78
2024/01/02 02:12:22;;;;;;;0.20;0.20;;;;;;;4.59;100.00;92231.22;2105637;28;20065;-80
2024/01/02 02:13:23;;;;;;;0.25;0.20;;;;;;;4.52;100.00;92222.25;2090268;28;20103;-80
2024/01/02 02:14:25;;;;;;;1.20;0.30;;;;;;;4.46;100.00;92225.72;2114197;28;20441;-81
2024/01/02 02:15:26;;;;;;;0.25;0.25;;;;;;;4.41;100.00;92223.53;2118585;27;20035;-80
2024/01/02 02:16:27;;;;;;;0.40;0.40;;;;;;;4.38;100.00;92224.31;2119409;27;20383;-84
2024/01/02 02:17:29;;;;;;;1.27;0.40;;;;;;;4.41;100.00;92221.63;2122295;27;20353;-81
2024/01/02 02:18:30;;;;;;;0.40;0.20;;;;;;;4.33;100.00;92228.16;2114038;28;20019;-81
2024/01/02 02:19:31;;;;;;;0.73;0.32;;;;;;;4.25;100.00;92219.56;2103688;28;20028;-83
2024/01/02 02:20:32;;;;;;;0.45;0.25;;;;;;;4.36;100.00;92214.16;2093589;28;20024;-82
2024/01/02 02:21:35;;;;;;;0.20;0.20;;;;;;;4.33;100.00;92217.56;2097003;28;20028;-77
2024/01/02 02:22:37;;;;;;;0.20;0.20;;;;;;;4.31;100.00;92205.91;2113625;28;20019;-82
2024/01/02 02:25:24;;;;;;;0.35;0.30;;;;;;;3.22;100.00;92215.41;2140933;27;20205;-79
2024/01/02 02:26:25;;;;;;;0.77;0.45;;;;;;;3.24;100.00;92207.81;2117292;28;20065;-80
2024/01/02 02:27:27;;;;;;;0.70;0.60;;;;;;;3.36;100.00;92207.34;2115741;27;20023;-80
2024/01/02 02:28:27;;;;;;;0.77;0.68;;;;;;;3.34;100.00;92198.31;2128742;27;20044;-83
2024/01/02 02:30:05;;;;;;;1.48;0.70;;;;;;;3.20;100.00;92185.97;2124742;27;20030;-82
2024/01/02 02:31:48;;;;;;;2.70;0.65;;;;;;;3.30;100.00;92193.06;2115206;28;20034;-81
2024/01/02 02:32:49;;;;;;;1.23;1.13;;;;;;;3.35;100.00;92189.25;2121984;28;20028;-80
2024/01/02 02:33:50;;;;;;;1.65;0.60;;;;;;;3.27;100.00;92188.56;2113069;28;20035;-79
2024/01/02 02:34:51;;;;;;;1.67;0.77;;;;;;;3.34;100.00;92175.28;2105051;28;20027;-78
2024/01/02 02:36:42;;;;;;;0.85;0.50;;;;;;;3.34;100.00;92180.59;2113096;28;20019;-80
2024/01/02 02:39:43;;;;;;;0.50;0.50;;;;;;;3.33;100.00;92173.78;2121593;28;20031;-79
2024/01/02 02:40:51;;;;;;;2.40;0.70;;;;;;;3.32;100.00;92171.53;2113545;28;20363;-84
2024/01/02 02:42:40;;;;;;;0.40;0.40;;;;;;;3.30;100.00;92174.59;2105434;28;20032;-81
2024/01/02 02:43:41;;;;;;;0.30;0.30;;;;;;;3.09;100.00;92174.78;2113412;28;20048;-83
2024/01/02 02:44:47;;;;;;;1.40;0.40;;;;;;;3.05;100.00;92169.53;2113487;28;20031;-77
2024/01/02 02:45:48;;;;;;;0.40;0.40;;;;;;;3.20;100.00;92164.84;2108214;28;20487;-80
2024/01/02 02:46:49;;;;;;;0.68;0.40;;;;;;;3.19;100.00;92160.72;2096279;28;20029;-79
2024/01/02 02:47:50;;;;;;;0.50;0.40;;;;;;;3.17;100.00;92161.13;2104511;28;20123;-79
2024/01/02 02:48:51;;;;;;;0.45;0.45;;;;;;;3.37;100.00;92160.53;2112992;28;20027;-78
2024/01/02 02:49:52;;;;;;;0.55;0.43;;;;;;;3.22;100.00;92160.69;2121490;28;20096;-80
2024/01/02 02:50:53;;;;;;;0.57;0.55;;;;;;;3.23;100.00;92164.06;2119181;28;20024;-80
2024/01/02 02:51:54;;;;;;;1.08;0.50;;;;;;;3.21;100.00;92153.16;2109175;28;20031;-82
2024/01/02 02:55:11;;;;;;;0.93;0.60;;;;;;;3.40;100.00;92151.84;2132835;27;20133;-82
2024/01/02 02:56:15;;;;;;;0.50;0.50;;;;;;;3.36;100.00;92151.13;2133398;27;20034;-79
2024/01/02 02:57:16;;;;;;;0.95;0.60;;;;;;;3.23;100.00;92153.50;2121575;27;20039;-79
2024/01/02 02:58:17;;;;;;;0.77;0.50;;;;;;;3.24;100.00;92141.81;2119110;28;20089;-82
2024/01/02 03:00:03;;;;;;;0.40;0.40;;;;;;;3.23;100.00;92142.94;2128498;27;20087;-79
2024/01/02 03:01:04;;;;;;;0.52;0.52;;;;;;;3.19;100.00;92140.34;2114936;28;20104;-81
2024/01/02 03:02:17;;;;;;;2.35;0.73;;;;;;;3.11;100.00;92133.63;2121083;28;20031;-82
2024/01/02 03:05:22;;;;;;;0.50;0.50;;;;;;;3.14;100.00;92134.75;2120506;28;20024;-81
2024/01/02 03:07:13;;;;;;;1.75;0.75;;;;;;;3.03;100.00;92132.97;2112829;28;20122;-77
2024/01/02 03:10:14;;;;;;;1.30;0.70;;;;;;;2.77;100.00;92118.50;2112883;28;20043;-81
2024/01/02 03:12:10;;;;;;;1.13;0.85;;;;;;;2.83;100.00;92118.06;2104203;28;20473;-81
2024/01/02 03:13:38;;;;;;;1.25;0.70;;;;;;;2.93;100.00;92114.56;2112940;28;20059;-79
2024/01/02 03:17:01;;;;;;;0.70;0.70;;;;;;;2.86;100.00;92101.47;2113385;28;20015;-82
2024/01/02 03:21:59;;;;;;;1.00;0.90;;;;;;;2.85;100.00;92107.88;2122628;27;20480;-78
2024/01/02 03:24:57;;;;;;;0.65;0.65;;;;;;;2.97;100.00;92110.00;2108773;28;20032;-83
2024/01/02 03:30:48;;;;;;;1.30;0.70;;;;;;;2.77;100.00;92088.72;2117406;28;20027;-82
2024/01/02 03:31:51;;;;;;;0.88;0.68;;;;;;;2.72;100.00;92084.63;2127041;27;20083;-79
2024/01/02 03:34:56;;;;;;;1.80;0.68;;;;;;;2.66;100.00;92083.53;2109096;28;20039;-82
2024/01/02 03:35:57;;;;;;;2.22;1.08;;;;;;;2.68;100.00;92075.25;2112100;28;20457;-82
2024/01/02 03:37:19;;;;;;;1.13;0.68;;;;;;;2.68;100.00;92077.88;2106040;28;20024;-83
2024/01/02 03:40:17;;;;;;;0.57;0.50;;;;;;;2.76;100.00;92058.94;2106837;28;20127;-81
2024/01/02 03:41:18;;;;;;;1.02;0.70;;;;;;;2.70;100.00;92057.13;2107051;28;20058;-80
2024/01/02 03:42:19;;;;;;;3.15;0.80;;;;;;;2.68;100.00;92059.41;2106600;28;20317;-81
2024/01/02 03:43:20;;;;;;;1.15;0.60;;;;;;;2.74;100.00;92065.75;2106449;28;20059;-80
2024/01/02 03:44:21;;;;;;;0.68;0.68;;;;;;;2.81;100.00;92057.00;2106889;28;20031;-79
2024/01/02 03:45:22;;;;;;;0.85;0.70;;;;;;;2.76;100.00;92055.53;2106512;28;20069;-81
2024/01/02 03:46:23;;;;;;;2.10;0.80;;;;;;;2.81;100.00;92065.69;2107115;28;20101;-79
2024/01/02 03:47:24;;;;;;;1.08;0.80;;;;;;;2.85;100.00;92055.09;2107120;28;20024;-82
2024/01/02 03:48:25;;;;;;;2.00;0.70;;;;;;;2.94;100.00;92042.16;2116060;28;20384;-82
2024/01/02 03:49:26;;;;;;;0.80;0.68;;;;;;;2.95;100.00;92033.13;2113764;28;20823;-83
2024/01/02 03:50:27;;;;;;;0.85;0.40;;;;;;;3.00;100.00;92040.63;2106793;28;20035;-81
2024/01/02 03:51:34;;;;;;;1.17;0.45;;;;;;;3.10;100.00;92039.75;2108881;28;20051;-81
2024/01/02 03:52:35;;;;;;;0.50;0.50;;;;;;;2.96;100.00;92030.09;2110142;28;20024;-82
2024/01/02 03:53:36;;;;;;;1.73;0.70;;;;;;;2.96;100.00;92031.97;2115825;28;20090;-82
2024/01/02 03:54:37;;;;;;;0.63;0.52;;;;;;;3.06;100.00;92027.72;2113661;28;20023;-80
2024/01/02 03:55:37;;;;;;;0.47;0.47;;;;;;;3.05;100.00;92032.25;2106694;28;20024;-84
2024/01/02 03:56:39;;;;;;;1.73;0.40;;;;;;;3.09;100.00;92026.94;2107396;28;20020;-78
2024/01/02 03:57:40;;;;;;;0.47;0.38;;;;;;;2.95;100.00;92030.50;2107017;28;20028;-81
2024/01/02 03:58:41;;;;;;;0.75;0.60;;;;;;;2.98;100.00;92030.44;2101497;28;20051;-84
2024/01/02 03:59:42;;;;;;;0.88;0.40;;;;;;;2.93;100.00;92024.84;2102110;28;20034;-83
2024/01/02 04:00:43;;;;;;;0.55;0.50;;;;;;;2.94;100.00;92021.81;2098366;28;20489;-80
2024/01/02 04:01:44;;;;;;;1.05;0.60;;;;;;;3.17;100.00;92034.38;2090231;28;20539;-81
2024/01/02 04:02:45;;;;;;;0.50;0.50;;;;;;;3.06;100.00;92025.09;2090022;28;20033;-83
2024/01/02 04:03:47;;;;;;;0.45;0.45;;;;;;;2.95;100.00;92018.03;2098343;28;20031;-83
2024/01/02 04:04:48;;;;;;;0.57;0.50;;;;;;;2.97;100.00;92025.56;2106522;28;20020;-84
2024/01/02 04:05:49;;;;;;;0.88;0.75;;;;;;;3.00;100.00;92019.50;2098277;28;20497;-81
2024/01/02 04:06:50;;;;;;;0.80;0.50;;;;;;;3.25;100.00;92019.22;2102099;28;20118;-78
2024/01/02 04:07:51;;;;;;;0.40;0.40;;;;;;;3.09;100.00;92005.81;2106602;28;20023;-78
2024/01/02 04:08:52;;;;;;;0.30;0.30;;;;;;;3.37;100.00;92010.00;2099050;28;20103;-82
2024/01/02 04:09:53;;;;;;;0.38;0.35;;;;;;;3.48;100.00;91994.78;2090070;28;20096;-80
2024/01/02 04:10:54;;;;;;;0.63;0.40;;;;;;;3.44;100.00;91994.81;2090164;28;20055;-81
2024/01/02 04:12:02;;;;;;;0.40;0.30;;;;;;;3.49;100.00;92015.50;2106560;28;20052;-80
2024/01/02 04:13:03;;;;;;;1.05;0.50;;;;;;;3.42;100.00;92005.00;2105517;28;20101;-85
2024/01/02 04:14:04;;;;;;;1.00;0.63;;;;;;;3.40;100.00;92009.94;2100469;28;20443;-78
2024/01/02 04:15:05;;;;;;;1.23;0.47;;;;;;;3.38;100.00;92006.97;2106636;28;20465;-81
2024/01/02 04:16:06;;;;;;;0.30;0.30;;;;;;;3.15;100.00;92006.88;2105941;28;20031;-80
2024/01/02 04:17:07;;;;;;;0.52;0.43;;;;;;;3.18;100.00;92004.19;2106103;28;20024;-82
2024/01/02 04:18:08;;;;;;;1.23;0.60;;;;;;;3.25;100.00;92009.41;2098383;28;20375;-78
2024/01/02 04:19:09;;;;;;;0.40;0.40;;;;;;;3.31;100.00;92007.06;2103735;28;20020;-84
2024/01/02 04:20:10;;;;;;;1.05;0.68;;;;;;;3.27;100.00;92011.63;2101599;28;20917;-84
2024/01/02 04:21:14;;;;;;;1.30;0.50;;;;;;;3.12;100.00;92005.78;2037449;28;23060;-82
2024/01/02 04:22:15;;;;;;;1.30;0.50;;;;;;;3.23;100.00;91995.81;2036746;27;20927;-80
2024/01/02 04:23:16;;;;;;;0.60;0.30;;;;;;;3.28;100.00;92000.66;2034120;28;20682;-77
2024/01/02 04:24:17;;;;;;;0.30;0.30;;;;;;;3.42;100.00;92001.63;2031029;28;23383;-79
2024/01/02 04:25:18;;;;;;;0.20;0.20;;;;;;;3.56;100.00;91995.41;2050762;27;20168;-83
2024/01/02 04:26:19;;;;;;;0.38;0.38;;;;;;;3.63;100.00;92000.59;2063197;27;21077;-81
2024/01/02 04:27:20;;;;;;;0.20;0.20;;;;;;;4.10;100.00;92008.59;2051287;28;20037;-79
2024/01/02 04:28:21;;;;;;;0.35;0.20;;;;;;;3.98;100.00;91992.16;2055121;28;20038;-79
2024/01/02 04:29:22;;;;;;;0.20;0.20;;;;;;;4.04;100.00;92011.72;2060465;28;20074;-84
2024/01/02 04:30:23;;;;;;;0.20;0.20;;;;;;;3.97;100.00;92005.78;2064122;28;20118;-78
2024/01/02 04:31:24;;;;;;;0.20;0.20;;;;;;;4.05;100.00;92007.16;2057386;28;20036;-82
2024/01/02 04:32:25;;;;;;;0.20;0.20;;;;;;;4.16;100.00;92002.44;2063402;28;20032;-79
2024/01/02 04:33:26;;;;;;;0.20;0.20;;;;;;;4.17;100.00;92000.53;2067197;28;22495;-84
2024/01/02 04:34:27;;;;;;;0.30;0.20;;;;;;;4.06;100.00;91990.16;2084061;28;20432;-80
2024/01/02 04:35:28;;;;;;;0.20;0.20;;;;;;;3.98;100.00;91999.34;2088641;28;20442;-82
2024/01/02 04:36:29;;;;;;;0.10;0.10;;;;;;;3.97;100.00;91993.31;2089535;28;20024;-81
2024/01/02 04:37:30;;;;;;;0.20;0.20;;;;;;;3.94;100.00;91998.63;2094611;28;20027;-84
2024/01/02 04:38:31;;;;;;;0.20;0.20;;;;;;;3.99;100.00;91998.19;2096280;28;20051;-77
2024/01/02 04:39:32;;;;;;;0.20;0.20;;;;;;;3.95;100.00;91984.25;2098145;28;20559;-83
2024/01/02 04:40:33;;;;;;;0.20;0.20;;;;;;;4.01;100.00;91982.69;2101101;28;20488;-83
2024/01/02 04:41:34;;;;;;;0.20;0.10;;;;;;;4.16;100.00;91991.13;2110662;28;20107;-80
2024/01/02 04:42:35;;;;;;;0.77;0.20;;;;;;;4.16;100.00;91993.75;2114698;28;20020;-82
2024/01/02 04:43:36;;;;;;;0.93;0.20;;;;;;;4.17;100.00;91990.75;2115104;28;20032;-84
2024/01/02 04:44:37;;;;;;;0.65;0.30;;;;;;;4.27;100.00;91989.81;2110369;28;20012;-80
2024/01/02 04:45:38;;;;;;;0.35;0.20;;;;;;;4.26;100.00;91979.66;2098132;28;20020;-86
2024/01/02 04:46:39;;;;;;;0.20;0.20;;;;;;;4.27;100.00;91976.59;2090085;28;20045;-81
2024/01/02 04:48:27;;;;;;;0.20;0.20;;;;;;;4.46;100.00;91974.38;2097586;28;20416;-82
2024/01/02 04:49:40;;;;;;;0.17;0.17;;;;;;;4.51;100.00;91979.94;2106955;28;20035;-80
2024/01/02 04:50:41;;;;;;;0.20;0.20;;;;;;;4.54;100.00;91988.97;2106179;28;20534;-84
2024/01/02 04:53:39;;;;;;;0.20;0.20;;;;;;;4.33;100.00;91958.34;2099522;28;20461;-83
2024/01/02 04:54:40;;;;;;;0.20;0.20;;;;;;;4.26;100.00;91961.13;2089467;28;20047;-79
2024/01/02 04:55:41;;;;;;;0.20;0.20;;;;;;;4.29;100.00;91963.69;2074940;28;20167;-80
2024/01/02 04:56:42;;;;;;;0.20;0.15;;;;;;;4.28;100.00;91942.94;2090835;28;20398;-82
2024/01/02 04:59:48;;;;;;;0.20;0.20;;;;;;;4.18;100.00;91938.59;2098451;28;20690;-84
2024/01/02 05:02:46;;;;;;;0.10;0.10;;;;;;;4.33;100.00;91949.66;2106691;28;20016;-84
2024/01/02 05:05:44;;;;;;;0.32;0.20;;;;;;;4.25;100.00;91956.97;2102010;28;20024;-80
2024/01/02 05:06:46;;;;;;;0.10;0.10;;;;;;;4.29;100.00;91949.72;2008662;28;20024;-83
2024/01/02 05:07:47;;;;;;;0.10;0.10;;;;;;;4.31;100.00;91946.69;2015697;28;20070;-80
2024/01/02 05:08:47;;;;;;;0.20;0.20;;;;;;;4.24;100.00;91934.31;2027675;28;20028;-81
2024/01/02 05:11:48;;;;;;;0.20;0.20;;;;;;;4.43;100.00;91925.66;2040412;28;20027;-82
2024/01/02 05:12:50;;;;;;;0.20;0.20;;;;;;;4.53;100.00;91934.56;2047969;28;20028;-82
2024/01/02 05:13:51;;;;;;;0.30;0.30;;;;;;;4.45;100.00;91938.50;2051290;28;20570;-83
2024/01/02 05:17:27;;;;;;;0.10;0.10;;;;;;;4.52;100.00;91941.78;2080796;27;22406;-81
2024/01/02 05:19:15;;;;;;;0.20;0.20;;;;;;;4.65;100.00;91933.94;2086855;28;20024;-80
2024/01/02 05:20:16;;;;;;;0.10;0.10;;;;;;;4.82;100.00;91934.78;2095087;28;20153;-80
2024/01/02 05:21:17;;;;;;;0.20;0.20;;;;;;;4.77;100.00;91925.41;2098300;28;20116;-85
2024/01/02 05:22:18;;;;;;;0.20;0.20;;;;;;;4.90;100.00;91925.53;2102012;28;20027;-82
2024/01/02 05:23:19;;;;;;;0.32;0.20;;;;;;;4.95;100.00;91938.28;2113108;28;20024;-82
2024/01/02 05:24:20;;;;;;;0.20;0.20;;;;;;;4.86;100.00;91924.84;2115218;28;20031;-86
2024/01/02 05:25:21;;;;;;;0.20;0.20;;;;;;;4.87;100.00;91921.03;2112191;28;20487;-85
2024/01/02 05:26:23;;;;;;;0.20;0.20;;;;;;;4.83;100.00;91922.28;2104352;28;20078;-82
2024/01/02 05:27:24;;;;;;;0.20;0.20;;;;;;;4.74;100.00;91913.00;2105771;28;20027;-81
2024/01/02 05:29:17;;;;;;;0.20;0.20;;;;;;;4.84;100.00;91918.50;2106288;28;20020;-80
2024/01/02 05:30:18;;;;;;;0.20;0.20;;;;;;;4.83;100.00;91911.69;2104605;28;20020;-80
2024/01/02 05:31:19;;;;;;;0.20;0.20;;;;;;;4.88;100.00;91924.47;2105664;28;20023;-84
2024/01/02 05:32:20;;;;;;;0.10;0.10;;;;;;;4.85;100.00;91920.72;2105760;28;20016;-82
2024/01/02 05:35:19;;;;;;;0.20;0.20;;;;;;;4.78;100.00;91916.34;2107226;28;20030;-83
2024/01/02 05:36:20;;;;;;;0.20;0.20;;;;;;;4.82;100.00;91923.44;2105918;28;20087;-81
2024/01/02 05:37:21;;;;;;;0.20;0.20;;;;;;;4.93;100.00;91929.28;2110111;28;20026;-82
2024/01/02 05:38:22;;;;;;;0.20;0.20;;;;;;;4.98;100.00;91945.44;2094069;28;20110;-80
2024/01/02 05:39:23;;;;;;;1.17;0.30;;;;;;;4.83;100.00;91923.03;2092166;28;20438;-82
2024/01/02 05:40:27;;;;;;;0.30;0.30;;;;;;;4.85;100.00;91925.28;2097693;28;20026;-80
2024/01/02 05:41:28;;;;;;;0.20;0.20;;;;;;;4.84;100.00;91918.50;2090004;28;20068;-79